Time;durP1;ratioP1;P1;durP2;ratioP2;P2;SDS_P1;SDS_P2;PMS_P1;PMS_P2;Temp;Humidity;BMP_temperature;BMP_pressure;BME280_temperature;BME280_humidity;BME280_pressure;Samples;Min_cycle;Max_cycle;Signal;HPM_P1;HPM_P2
2023/12/19 00:00:43;;;;;;;;;;;20.20;48.10;;;;;;5102626;28;20022;-59
2023/12/19 00:03:10;;;;;;;;;;;20.20;48.10;;;;;;5107609;28;19931;-59
2023/12/19 00:05:37;;;;;;;;;;;20.20;48.10;;;;;;5097245;28;19923;-60
2023/12/19 00:08:03;;;;;;;;;;;20.20;48.20;;;;;;5088582;28;19927;-59
2023/12/19 00:10:32;;;;;;;;;;;20.20;48.10;;;;;;5110927;28;19978;-60
2023/12/19 00:12:58;;;;;;;;;;;20.20;48.10;;;;;;5106184;28;19934;-59
2023/12/19 00:15:25;;;;;;;;;;;20.20;48.10;;;;;;5102642;28;20010;-59
2023/12/19 00:17:52;;;;;;;;;;;20.20;48.10;;;;;;5099006;28;19935;-60
2023/12/19 00:20:19;;;;;;;;;;;20.20;48.10;;;;;;5102055;28;19971;-59
2023/12/19 00:22:46;;;;;;;;;;;20.20;48.20;;;;;;5104433;28;19924;-60
2023/12/19 00:25:13;;;;;;;;;;;20.20;48.20;;;;;;5109689;28;19931;-60
2023/12/19 00:27:41;;;;;;;;;;;20.20;48.10;;;;;;5098277;28;19943;-59
2023/12/19 00:30:08;;;;;;;;;;;20.20;48.10;;;;;;5104317;28;19923;-60
2023/12/19 00:32:35;;;;;;;;;;;20.20;48.10;;;;;;5106560;28;19928;-60
2023/12/19 00:35:02;;;;;;;;;;;20.20;48.10;;;;;;5115723;28;19934;-60
2023/12/19 00:37:29;;;;;;;;;;;20.20;48.10;;;;;;5114304;28;19957;-60
2023/12/19 00:39:56;;;;;;;;;;;20.20;48.10;;;;;;5104584;28;19927;-60
2023/12/19 00:42:22;;;;;;;;;;;20.20;48.10;;;;;;5105740;28;19924;-59
2023/12/19 00:44:50;;;;;;;;;;;20.20;48.10;;;;;;5093833;28;19956;-60
2023/12/19 00:47:17;;;;;;;;;;;20.20;48.10;;;;;;5110248;28;19928;-59
2023/12/19 00:49:44;;;;;;;;;;;20.10;48.10;;;;;;5106202;28;19935;-60
2023/12/19 00:52:11;;;;;;;;;;;20.20;48.10;;;;;;5108311;28;19924;-60
2023/12/19 00:54:37;;;;;;;;;;;20.20;48.10;;;;;;5115186;28;19973;-60
2023/12/19 00:57:04;;;;;;;;;;;20.20;48.10;;;;;;5105171;28;20001;-59
2023/12/19 00:59:31;;;;;;;;;;;20.10;48.00;;;;;;5099727;28;19924;-59
2023/12/19 01:01:59;;;;;;;;;;;20.20;48.10;;;;;;5101652;28;19986;-59
2023/12/19 01:04:26;;;;;;;;;;;20.20;48.10;;;;;;5102369;28;19932;-60
2023/12/19 01:06:53;;;;;;;;;;;20.20;48.10;;;;;;5108692;28;19927;-59
2023/12/19 01:09:20;;;;;;;;;;;20.20;48.10;;;;;;5114766;28;19924;-59
2023/12/19 01:11:47;;;;;;;;;;;20.10;48.00;;;;;;5097426;28;19932;-59
2023/12/19 01:14:14;;;;;;;;;;;20.10;48.10;;;;;;5102116;28;19966;-60
2023/12/19 01:16:40;;;;;;;;;;;20.10;48.00;;;;;;5108426;28;19962;-60
2023/12/19 01:19:09;;;;;;;;;;;20.10;48.00;;;;;;5095151;28;19931;-59
2023/12/19 01:21:36;;;;;;;;;;;20.10;48.00;;;;;;5092575;28;19923;-60
2023/12/19 01:24:03;;;;;;;;;;;20.10;48.00;;;;;;5115568;28;19923;-60
2023/12/19 01:26:31;;;;;;;;;;;20.10;48.10;;;;;;5100180;28;19931;-60
2023/12/19 01:28:58;;;;;;;;;;;20.10;48.00;;;;;;5109246;28;20002;-60
2023/12/19 01:31:25;;;;;;;;;;;20.10;48.00;;;;;;5115007;28;19934;-60
2023/12/19 01:33:52;;;;;;;;;;;20.10;48.00;;;;;;5101412;27;19927;-60
2023/12/19 01:36:20;;;;;;;;;;;20.10;48.00;;;;;;5117099;27;19923;-60
2023/12/19 01:38:47;;;;;;;;;;;20.10;48.00;;;;;;5100485;28;19932;-60
2023/12/19 01:41:13;;;;;;;;;;;20.10;48.00;;;;;;5100644;28;19995;-60
2023/12/19 01:43:40;;;;;;;;;;;20.10;48.00;;;;;;5100360;27;19945;-60
2023/12/19 01:46:08;;;;;;;;;;;20.10;48.00;;;;;;5108245;28;19928;-60
2023/12/19 01:48:34;;;;;;;;;;;20.10;48.00;;;;;;5116286;27;19994;-60
2023/12/19 01:51:01;;;;;;;;;;;20.10;48.00;;;;;;5098100;28;19934;-60
2023/12/19 01:53:28;;;;;;;;;;;20.10;48.00;;;;;;5114453;28;19931;-60
2023/12/19 01:55:56;;;;;;;;;;;20.10;48.00;;;;;;5107090;28;20030;-60
2023/12/19 01:58:22;;;;;;;;;;;20.10;48.00;;;;;;5103938;28;19977;-60
2023/12/19 02:00:50;;;;;;;;;;;20.10;48.00;;;;;;5095486;28;19930;-59
2023/12/19 02:03:16;;;;;;;;;;;20.10;48.00;;;;;;5102136;28;19931;-60
2023/12/19 02:05:43;;;;;;;;;;;20.10;48.00;;;;;;5114245;28;19984;-60
2023/12/19 02:08:10;;;;;;;;;;;20.10;48.00;;;;;;5106952;27;19963;-60
2023/12/19 02:15:44;;;;;;;;;;;20.10;48.00;;;;;;5047732;28;19932;-60
2023/12/19 02:18:14;;;;;;;;;;;20.10;48.00;;;;;;5038875;28;20149;-60
2023/12/19 02:20:41;;;;;;;;;;;20.10;48.00;;;;;;5172280;22;20012;-60
2023/12/19 02:23:09;;;;;;;;;;;20.10;48.00;;;;;;5050319;28;19925;-60
2023/12/19 02:25:36;;;;;;;;;;;20.10;48.00;;;;;;5046755;28;19935;-60
2023/12/19 02:28:03;;;;;;;;;;;20.10;48.00;;;;;;5050210;28;19932;-61
2023/12/19 02:30:30;;;;;;;;;;;20.10;48.00;;;;;;5051782;28;19978;-60
2023/12/19 02:32:58;;;;;;;;;;;20.10;48.00;;;;;;5050695;28;19935;-60
2023/12/19 02:35:24;;;;;;;;;;;20.10;48.00;;;;;;5051842;28;20034;-59
2023/12/19 02:37:51;;;;;;;;;;;20.10;48.60;;;;;;5049299;28;19929;-60
2023/12/19 02:40:19;;;;;;;;;;;20.10;48.00;;;;;;5048210;28;19952;-60
2023/12/19 02:42:46;;;;;;;;;;;20.10;48.00;;;;;;5047216;28;19924;-59
2023/12/19 02:45:13;;;;;;;;;;;20.10;48.00;;;;;;5048830;28;19924;-60
2023/12/19 02:47:39;;;;;;;;;;;20.10;48.00;;;;;;5051511;28;19932;-60
2023/12/19 02:50:07;;;;;;;;;;;20.10;48.00;;;;;;5044504;28;19929;-61
2023/12/19 02:52:33;;;;;;;;;;;20.10;48.00;;;;;;5050026;28;19925;-60
2023/12/19 02:55:00;;;;;;;;;;;20.10;48.00;;;;;;5049925;28;19931;-60
2023/12/19 02:57:28;;;;;;;;;;;20.10;48.00;;;;;;5046438;28;19972;-60
2023/12/19 02:59:55;;;;;;;;;;;20.10;48.00;;;;;;5050371;28;19933;-59
2023/12/19 03:02:22;;;;;;;;;;;20.10;48.00;;;;;;5043577;28;19925;-60
2023/12/19 03:04:49;;;;;;;;;;;20.10;48.00;;;;;;5050395;28;19971;-60
2023/12/19 03:07:15;;;;;;;;;;;20.10;48.00;;;;;;5045554;28;19991;-59
2023/12/19 03:09:42;;;;;;;;;;;20.10;48.00;;;;;;5046759;28;19979;-60
2023/12/19 03:12:09;;;;;;;;;;;20.10;48.00;;;;;;5049685;28;19947;-60
2023/12/19 03:14:37;;;;;;;;;;;20.10;48.00;;;;;;5050414;28;20047;-59
2023/12/19 03:17:04;;;;;;;;;;;20.10;48.00;;;;;;5051097;28;19925;-59
2023/12/19 03:19:31;;;;;;;;;;;20.10;48.00;;;;;;5040688;28;19932;-59
2023/12/19 03:21:58;;;;;;;;;;;20.10;48.00;;;;;;5052704;28;19936;-59
2023/12/19 03:24:24;;;;;;;;;;;20.10;48.00;;;;;;5043296;28;19936;-60
2023/12/19 03:26:51;;;;;;;;;;;20.10;48.00;;;;;;5049709;28;19982;-59
2023/12/19 03:29:18;;;;;;;;;;;20.10;48.00;;;;;;5040860;28;19929;-60
2023/12/19 03:31:46;;;;;;;;;;;20.10;48.00;;;;;;5049633;28;19924;-60
2023/12/19 03:34:13;;;;;;;;;;;20.00;47.80;;;;;;5045951;28;19987;-60
2023/12/19 03:36:40;;;;;;;;;;;20.10;48.00;;;;;;5037736;28;19925;-60
2023/12/19 03:39:07;;;;;;;;;;;20.10;48.00;;;;;;5044095;28;19975;-60
2023/12/19 03:41:33;;;;;;;;;;;20.10;48.00;;;;;;5049293;28;19925;-59
2023/12/19 03:44:00;;;;;;;;;;;20.10;48.00;;;;;;5052692;28;19940;-60
2023/12/19 03:46:27;;;;;;;;;;;20.00;47.90;;;;;;5047384;28;19932;-60
2023/12/19 03:48:55;;;;;;;;;;;20.10;48.00;;;;;;5050370;28;19929;-60
2023/12/19 03:51:22;;;;;;;;;;;20.10;48.00;;;;;;5047027;28;19940;-60
2023/12/19 03:53:49;;;;;;;;;;;20.10;48.00;;;;;;5051310;28;20344;-60
2023/12/19 03:56:15;;;;;;;;;;;20.10;48.00;;;;;;5040745;28;19928;-60
2023/12/19 03:58:42;;;;;;;;;;;20.00;47.90;;;;;;5044678;28;19936;-59
2023/12/19 04:01:10;;;;;;;;;;;20.10;48.60;;;;;;5049824;28;20242;-60
2023/12/19 04:03:37;;;;;;;;;;;20.10;48.00;;;;;;5040225;28;19936;-60
2023/12/19 04:06:06;;;;;;;;;;;20.10;48.00;;;;;;5045905;28;19929;-60
2023/12/19 04:08:33;;;;;;;;;;;20.10;48.00;;;;;;5048192;28;19933;-60
2023/12/19 04:11:00;;;;;;;;;;;20.00;47.90;;;;;;5048234;28;19925;-59
2023/12/19 04:13:25;;;;;;;;;;;20.10;48.00;;;;;;5043975;28;19925;-60
2023/12/19 04:15:52;;;;;;;;;;;20.00;47.80;;;;;;5044949;28;19940;-60
2023/12/19 04:18:19;;;;;;;;;;;20.10;48.00;;;;;;5044282;28;19928;-60
2023/12/19 04:20:46;;;;;;;;;;;20.00;47.90;;;;;;5046331;28;19925;-59
2023/12/19 04:23:14;;;;;;;;;;;20.10;48.00;;;;;;5050002;28;19978;-59
2023/12/19 04:25:40;;;;;;;;;;;20.00;47.80;;;;;;5043925;28;19931;-60
2023/12/19 04:28:07;;;;;;;;;;;20.10;47.90;;;;;;5049198;28;19925;-60
2023/12/19 04:30:34;;;;;;;;;;;20.10;48.00;;;;;;5048512;28;19936;-60
2023/12/19 04:33:01;;;;;;;;;;;20.10;48.00;;;;;;5049369;28;19925;-60
2023/12/19 04:35:27;;;;;;;;;;;20.00;47.90;;;;;;5050355;28;19928;-60
2023/12/19 04:37:54;;;;;;;;;;;20.10;48.00;;;;;;5048604;28;19959;-60
2023/12/19 04:40:22;;;;;;;;;;;20.10;48.00;;;;;;5050448;28;19925;-59
2023/12/19 04:42:49;;;;;;;;;;;20.00;47.80;;;;;;5050044;28;19954;-59
2023/12/19 04:45:16;;;;;;;;;;;20.00;47.90;;;;;;5045788;28;19925;-60
2023/12/19 04:47:45;;;;;;;;;;;20.00;47.90;;;;;;5046416;28;19932;-59
2023/12/19 04:50:12;;;;;;;;;;;20.00;47.90;;;;;;5047583;28;20164;-59
2023/12/19 04:52:39;;;;;;;;;;;20.00;47.90;;;;;;5048949;28;19924;-60
2023/12/19 04:55:06;;;;;;;;;;;20.10;47.90;;;;;;5050461;28;19968;-60
2023/12/19 04:57:34;;;;;;;;;;;20.10;47.90;;;;;;5050780;28;19925;-60
2023/12/19 05:00:04;;;;;;;;;;;20.10;47.90;;;;;;5055516;28;20443;-60
2023/12/19 05:02:31;;;;;;;;;;;20.10;47.90;;;;;;5048156;28;19931;-61
2023/12/19 05:04:58;;;;;;;;;;;20.10;47.90;;;;;;5046818;28;19932;-59
2023/12/19 05:07:25;;;;;;;;;;;20.00;47.80;;;;;;5048553;28;19924;-60
2023/12/19 05:09:51;;;;;;;;;;;20.00;47.80;;;;;;5043916;28;19936;-60
2023/12/19 05:12:19;;;;;;;;;;;20.00;47.80;;;;;;5051506;28;19931;-60
2023/12/19 05:14:47;;;;;;;;;;;20.00;47.80;;;;;;5048571;28;19932;-59
2023/12/19 05:17:14;;;;;;;;;;;20.00;47.80;;;;;;5053917;28;19924;-60
2023/12/19 05:19:41;;;;;;;;;;;20.00;47.80;;;;;;5053422;28;20267;-59
2023/12/19 05:22:07;;;;;;;;;;;20.00;47.80;;;;;;5042343;28;19925;-60
2023/12/19 05:24:37;;;;;;;;;;;20.00;47.80;;;;;;5051364;28;19929;-60
2023/12/19 05:27:04;;;;;;;;;;;20.00;47.80;;;;;;5053729;28;19947;-60
2023/12/19 05:29:31;;;;;;;;;;;20.00;47.80;;;;;;5048502;28;19925;-60
2023/12/19 05:31:59;;;;;;;;;;;20.00;47.80;;;;;;5054200;28;19925;-60
2023/12/19 05:34:26;;;;;;;;;;;20.00;47.80;;;;;;5047493;28;19928;-60
2023/12/19 05:36:53;;;;;;;;;;;20.00;47.80;;;;;;5053953;28;19924;-60
2023/12/19 05:39:20;;;;;;;;;;;20.00;47.80;;;;;;5045887;28;19928;-60
2023/12/19 05:41:46;;;;;;;;;;;20.00;47.80;;;;;;5048007;28;19925;-60
2023/12/19 05:44:13;;;;;;;;;;;20.00;47.80;;;;;;5052911;28;19963;-60
2023/12/19 05:46:40;;;;;;;;;;;20.00;47.80;;;;;;5048665;28;20030;-60
2023/12/19 05:49:08;;;;;;;;;;;20.00;47.80;;;;;;5051327;28;19936;-60
2023/12/19 05:51:38;;;;;;;;;;;20.00;47.80;;;;;;5053828;28;19924;-60
2023/12/19 05:54:05;;;;;;;;;;;20.00;47.80;;;;;;5050436;28;19929;-60
2023/12/19 05:56:31;;;;;;;;;;;20.00;47.80;;;;;;5046176;28;19925;-60
2023/12/19 05:58:58;;;;;;;;;;;20.00;47.80;;;;;;5036842;28;19925;-59
2023/12/19 06:01:25;;;;;;;;;;;20.00;47.80;;;;;;5048894;28;19967;-60
2023/12/19 06:03:52;;;;;;;;;;;20.00;47.80;;;;;;5049990;28;19929;-60
2023/12/19 06:06:20;;;;;;;;;;;20.00;47.80;;;;;;5049800;28;19947;-60
2023/12/19 06:08:47;;;;;;;;;;;20.00;47.80;;;;;;5045291;28;19928;-60
2023/12/19 06:11:13;;;;;;;;;;;20.00;47.70;;;;;;5061953;28;19925;-60
2023/12/19 06:13:40;;;;;;;;;;;20.00;47.70;;;;;;5046763;28;19983;-60
2023/12/19 06:16:08;;;;;;;;;;;20.00;47.70;;;;;;5049365;28;19932;-60
2023/12/19 06:18:34;;;;;;;;;;;20.00;47.70;;;;;;5038858;28;19928;-60
2023/12/19 06:21:01;;;;;;;;;;;20.00;47.80;;;;;;5052215;28;19982;-60
2023/12/19 06:23:29;;;;;;;;;;;20.00;47.70;;;;;;5042431;28;19925;-60
2023/12/19 06:25:56;;;;;;;;;;;20.00;47.80;;;;;;5039895;28;19925;-60
2023/12/19 06:28:23;;;;;;;;;;;20.00;47.80;;;;;;5045772;28;19925;-61
2023/12/19 06:30:50;;;;;;;;;;;20.00;47.70;;;;;;5037066;28;19925;-60
2023/12/19 06:33:17;;;;;;;;;;;20.00;47.70;;;;;;5038149;28;19990;-60
2023/12/19 06:35:44;;;;;;;;;;;20.00;47.70;;;;;;5044581;28;19924;-61
2023/12/19 06:38:11;;;;;;;;;;;20.00;47.70;;;;;;5050068;28;19936;-61
2023/12/19 06:40:39;;;;;;;;;;;20.00;47.70;;;;;;5039624;28;19929;-60
2023/12/19 06:43:10;;;;;;;;;;;20.00;47.70;;;;;;5043027;28;19929;-61
2023/12/19 06:45:36;;;;;;;;;;;20.00;47.70;;;;;;5032139;28;19925;-60
2023/12/19 06:48:04;;;;;;;;;;;20.00;47.70;;;;;;5051297;28;19928;-60
2023/12/19 06:50:30;;;;;;;;;;;20.00;47.70;;;;;;5032411;28;19925;-60
2023/12/19 06:52:57;;;;;;;;;;;20.00;47.70;;;;;;5041153;28;19925;-60
2023/12/19 06:55:25;;;;;;;;;;;20.00;47.70;;;;;;5040353;28;19925;-60
2023/12/19 06:57:55;;;;;;;;;;;20.00;47.70;;;;;;5042796;28;19929;-60
2023/12/19 07:00:21;;;;;;;;;;;20.00;47.70;;;;;;5039277;28;19986;-60
2023/12/19 07:02:48;;;;;;;;;;;20.00;47.70;;;;;;5048563;28;19929;-60
2023/12/19 07:05:15;;;;;;;;;;;20.00;47.80;;;;;;5043038;28;19925;-60
2023/12/19 07:07:42;;;;;;;;;;;20.00;47.80;;;;;;5046467;28;19929;-60
2023/12/19 07:10:09;;;;;;;;;;;20.00;47.80;;;;;;5048329;28;19924;-61
2023/12/19 07:12:35;;;;;;;;;;;20.00;47.80;;;;;;5030835;28;19975;-62
2023/12/19 07:15:05;;;;;;;;;;;20.00;47.80;;;;;;5039126;28;20310;-60
2023/12/19 07:17:32;;;;;;;;;;;20.00;47.80;;;;;;5031245;28;19924;-60
2023/12/19 07:19:58;;;;;;;;;;;20.00;47.80;;;;;;5040489;28;19926;-60
2023/12/19 07:22:25;;;;;;;;;;;20.00;47.80;;;;;;5046761;28;19929;-60
2023/12/19 07:24:52;;;;;;;;;;;20.00;47.80;;;;;;5014716;28;19933;-60
2023/12/19 07:27:19;;;;;;;;;;;20.00;47.80;;;;;;5041447;28;19925;-60
2023/12/19 07:29:46;;;;;;;;;;;20.00;47.80;;;;;;5045459;28;19964;-64
2023/12/19 07:32:14;;;;;;;;;;;20.00;47.80;;;;;;5045612;28;19979;-60
2023/12/19 07:34:41;;;;;;;;;;;20.00;47.80;;;;;;5050201;28;19929;-60
2023/12/19 07:37:08;;;;;;;;;;;20.00;47.80;;;;;;5037184;28;19967;-60
2023/12/19 07:39:35;;;;;;;;;;;20.00;47.80;;;;;;5031356;28;19926;-59
2023/12/19 07:42:02;;;;;;;;;;;20.00;47.70;;;;;;5030652;28;19940;-66
2023/12/19 07:44:28;;;;;;;;;;;20.00;44.60;;;;;;5048634;28;19960;-63
2023/12/19 07:46:57;;;;;;;;;;;20.00;44.50;;;;;;5046729;28;19931;-61
2023/12/19 07:49:25;;;;;;;;;;;19.90;45.20;;;;;;5048547;28;19972;-60
2023/12/19 07:51:52;;;;;;;;;;;19.90;45.70;;;;;;5045963;28;19941;-58
2023/12/19 07:54:18;;;;;;;;;;;19.90;46.00;;;;;;5050223;28;19925;-59
2023/12/19 07:56:45;;;;;;;;;;;19.90;46.20;;;;;;5049779;28;19931;-60
2023/12/19 07:59:12;;;;;;;;;;;19.90;46.40;;;;;;5050071;28;20274;-60
2023/12/19 08:01:39;;;;;;;;;;;19.90;46.50;;;;;;5050328;28;19976;-60
2023/12/19 08:04:06;;;;;;;;;;;19.80;46.60;;;;;;5043563;28;20334;-60
2023/12/19 08:06:34;;;;;;;;;;;19.90;46.70;;;;;;5044516;28;19932;-60
2023/12/19 08:09:00;;;;;;;;;;;19.90;46.80;;;;;;5045108;28;19925;-60
2023/12/19 08:11:27;;;;;;;;;;;19.90;46.80;;;;;;5047694;28;19929;-60
2023/12/19 08:13:54;;;;;;;;;;;19.90;46.90;;;;;;5047218;28;19924;-60
2023/12/19 08:16:21;;;;;;;;;;;19.90;47.00;;;;;;5045720;28;19992;-59
2023/12/19 08:18:50;;;;;;;;;;;20.00;47.10;;;;;;5037881;28;20024;-60
2023/12/19 08:21:17;;;;;;;;;;;19.90;47.00;;;;;;5039158;28;19971;-59
2023/12/19 08:23:47;;;;;;;;;;;20.00;47.80;;;;;;5050718;28;19925;-60
2023/12/19 08:26:13;;;;;;;;;;;19.90;47.10;;;;;;5048636;28;19924;-61
2023/12/19 08:28:41;;;;;;;;;;;20.00;47.20;;;;;;5049359;28;19951;-60
2023/12/19 08:31:08;;;;;;;;;;;20.00;47.20;;;;;;5047284;28;19979;-59
2023/12/19 08:33:35;;;;;;;;;;;20.00;47.20;;;;;;5047637;28;19921;-60
2023/12/19 08:36:02;;;;;;;;;;;20.00;47.30;;;;;;5048261;28;20029;-60
2023/12/19 08:38:29;;;;;;;;;;;20.00;47.30;;;;;;5047406;28;19936;-59
2023/12/19 08:40:57;;;;;;;;;;;20.00;47.30;;;;;;5049381;28;19925;-59
2023/12/19 08:43:24;;;;;;;;;;;20.00;47.30;;;;;;5045061;28;19936;-59
2023/12/19 08:45:50;;;;;;;;;;;20.00;47.40;;;;;;5044507;28;19931;-61
2023/12/19 08:48:17;;;;;;;;;;;20.00;47.30;;;;;;5045454;28;19924;-60
2023/12/19 08:50:44;;;;;;;;;;;20.10;47.40;;;;;;5050251;28;19929;-60
2023/12/19 08:53:12;;;;;;;;;;;20.10;47.40;;;;;;5029760;28;19951;-60
2023/12/19 08:55:39;;;;;;;;;;;20.10;47.40;;;;;;5047465;28;19929;-60
2023/12/19 08:58:08;;;;;;;;;;;20.10;47.50;;;;;;5047241;28;20411;-60
2023/12/19 09:00:35;;;;;;;;;;;20.10;47.50;;;;;;5047015;28;19925;-60
2023/12/19 09:03:05;;;;;;;;;;;20.10;47.50;;;;;;5050607;28;19945;-60
2023/12/19 09:05:32;;;;;;;;;;;20.10;47.50;;;;;;5034896;28;19925;-59
2023/12/19 09:07:59;;;;;;;;;;;20.10;47.50;;;;;;5044583;28;19925;-60
2023/12/19 09:10:26;;;;;;;;;;;20.10;47.50;;;;;;5049714;28;19931;-60
2023/12/19 09:12:52;;;;;;;;;;;20.10;47.50;;;;;;5068429;28;19979;-60
2023/12/19 09:15:21;;;;;;;;;;;20.10;47.50;;;;;;5050316;28;20136;-60
2023/12/19 09:17:48;;;;;;;;;;;20.10;47.50;;;;;;5047432;28;19925;-59
2023/12/19 09:20:15;;;;;;;;;;;20.10;47.50;;;;;;5044531;28;19925;-60
2023/12/19 09:22:42;;;;;;;;;;;20.10;47.50;;;;;;5052855;28;19924;-60
2023/12/19 09:25:14;;;;;;;;;;;20.10;47.50;;;;;;5044702;28;19983;-59
2023/12/19 09:27:41;;;;;;;;;;;20.10;47.50;;;;;;5048331;28;20298;-61
2023/12/19 09:30:09;;;;;;;;;;;20.20;47.60;;;;;;5033207;28;19965;-59
2023/12/19 09:32:38;;;;;;;;;;;20.20;47.70;;;;;;5042311;28;19996;-61
2023/12/19 09:35:05;;;;;;;;;;;20.20;47.60;;;;;;5049749;28;19932;-61
2023/12/19 09:37:32;;;;;;;;;;;20.20;47.70;;;;;;5045107;28;19924;-58
2023/12/19 09:39:58;;;;;;;;;;;20.20;47.70;;;;;;5049794;28;19965;-59
2023/12/19 09:42:25;;;;;;;;;;;20.20;47.70;;;;;;5035767;28;19972;-59
2023/12/19 09:44:52;;;;;;;;;;;20.20;47.70;;;;;;5038625;28;19925;-59
2023/12/19 09:47:20;;;;;;;;;;;20.20;47.70;;;;;;5052110;28;19925;-59
2023/12/19 09:49:49;;;;;;;;;;;20.20;47.70;;;;;;5053006;28;19925;-60
2023/12/19 09:52:15;;;;;;;;;;;20.20;47.70;;;;;;5044419;28;20015;-59
2023/12/19 09:54:42;;;;;;;;;;;20.20;47.70;;;;;;5052847;28;19974;-60
2023/12/19 09:57:11;;;;;;;;;;;20.20;47.70;;;;;;5053525;28;19925;-61
2023/12/19 09:59:38;;;;;;;;;;;20.20;47.70;;;;;;5044391;28;19933;-59
2023/12/19 10:02:05;;;;;;;;;;;20.20;47.80;;;;;;5056171;28;19931;-60
2023/12/19 10:04:32;;;;;;;;;;;20.20;47.70;;;;;;5048822;28;19961;-60
2023/12/19 10:07:00;;;;;;;;;;;20.20;47.80;;;;;;5045683;28;19925;-59
2023/12/19 10:09:27;;;;;;;;;;;20.20;47.70;;;;;;5037320;28;19951;-59
2023/12/19 10:12:06;;;;;;;;;;;20.30;47.80;;;;;;5045618;28;19933;-59
2023/12/19 10:14:33;;;;;;;;;;;20.20;47.70;;;;;;5034523;28;19933;-59
2023/12/19 10:17:01;;;;;;;;;;;20.30;47.80;;;;;;5040478;28;19964;-60
2023/12/19 10:19:28;;;;;;;;;;;20.20;47.70;;;;;;5033476;28;20329;-60
2023/12/19 10:22:06;;;;;;;;;;;20.30;47.80;;;;;;5033119;28;19933;-60
2023/12/19 10:24:33;;;;;;;;;;;20.30;47.80;;;;;;5044940;28;20015;-60
2023/12/19 10:27:00;;;;;;;;;;;20.30;47.80;;;;;;5053853;28;19931;-60
2023/12/19 10:29:28;;;;;;;;;;;20.20;47.70;;;;;;5043908;28;19955;-60
2023/12/19 10:31:55;;;;;;;;;;;20.30;47.80;;;;;;5051586;28;19931;-61
2023/12/19 10:34:22;;;;;;;;;;;20.30;47.80;;;;;;5050377;28;19924;-60
2023/12/19 10:36:49;;;;;;;;;;;20.30;47.80;;;;;;5046438;28;19936;-60
2023/12/19 10:39:19;;;;;;;;;;;20.30;47.80;;;;;;5050258;28;19947;-61
2023/12/19 10:41:46;;;;;;;;;;;20.30;47.80;;;;;;5048875;28;19960;-60
2023/12/19 10:44:13;;;;;;;;;;;20.30;47.80;;;;;;5049831;28;19933;-60
2023/12/19 10:46:40;;;;;;;;;;;20.30;47.90;;;;;;5048205;28;19978;-60
2023/12/19 10:49:06;;;;;;;;;;;20.30;47.80;;;;;;5044776;28;19944;-60
2023/12/19 10:51:33;;;;;;;;;;;20.30;47.80;;;;;;5041705;28;19931;-60
2023/12/19 10:54:02;;;;;;;;;;;20.30;47.80;;;;;;5042907;28;19921;-60
2023/12/19 10:56:31;;;;;;;;;;;20.30;47.80;;;;;;5045514;28;19940;-60
2023/12/19 10:58:59;;;;;;;;;;;20.30;47.80;;;;;;5048559;28;19979;-60
2023/12/19 11:01:26;;;;;;;;;;;20.30;47.80;;;;;;5044381;28;19937;-60
2023/12/19 11:03:55;;;;;;;;;;;20.30;47.80;;;;;;5052265;28;19933;-60
2023/12/19 11:06:23;;;;;;;;;;;20.30;47.80;;;;;;5043247;28;19925;-59
2023/12/19 11:08:50;;;;;;;;;;;20.30;47.70;;;;;;5039463;28;19929;-61
2023/12/19 11:11:19;;;;;;;;;;;20.30;47.70;;;;;;5043362;28;19925;-60
2023/12/19 11:13:47;;;;;;;;;;;20.30;47.70;;;;;;5045436;28;20313;-60
2023/12/19 11:16:20;;;;;;;;;;;20.30;47.20;;;;;;5043881;28;19931;-61
2023/12/19 11:18:52;;;;;;;;;;;20.30;44.10;;;;;;5041571;28;19932;-64
2023/12/19 11:21:19;;;;;;;;;;;20.20;42.90;;;;;;5053327;28;19931;-59
2023/12/19 11:23:50;;;;;;;;;;;20.00;42.30;;;;;;5046495;28;19925;-58
2023/12/19 11:26:18;;;;;;;;;;;19.90;42.40;;;;;;5041637;28;19932;-59
2023/12/19 11:28:45;;;;;;;;;;;19.70;43.30;;;;;;5046399;28;19940;-59
2023/12/19 11:31:32;;;;;;;;;;;19.60;44.30;;;;;;5046967;28;19925;-59
2023/12/19 11:34:00;;;;;;;;;;;19.60;44.70;;;;;;5046142;28;19925;-55
2023/12/19 11:36:27;;;;;;;;;;;19.50;44.90;;;;;;5041101;28;19933;-59
2023/12/19 11:39:09;;;;;;;;;;;19.50;45.10;;;;;;5049170;28;19932;-59
2023/12/19 11:41:35;;;;;;;;;;;19.50;45.20;;;;;;5042534;28;19932;-60
2023/12/19 11:44:02;;;;;;;;;;;19.50;45.40;;;;;;5048423;28;19924;-61
2023/12/19 11:46:29;;;;;;;;;;;19.50;45.40;;;;;;5039198;28;19931;-61
2023/12/19 11:48:57;;;;;;;;;;;19.60;45.60;;;;;;5044284;28;19933;-62
2023/12/19 11:51:42;;;;;;;;;;;19.60;45.60;;;;;;5049739;28;19929;-61
2023/12/19 11:54:10;;;;;;;;;;;19.60;45.70;;;;;;5038239;28;19925;-61
2023/12/19 11:56:37;;;;;;;;;;;19.60;45.80;;;;;;5045619;28;20010;-60
2023/12/19 11:59:04;;;;;;;;;;;19.60;45.80;;;;;;5040240;28;19932;-61
2023/12/19 12:01:37;;;;;;;;;;;19.70;45.90;;;;;;5045412;28;19925;-60
2023/12/19 12:04:06;;;;;;;;;;;19.70;46.00;;;;;;5038271;28;19929;-60
2023/12/19 12:06:32;;;;;;;;;;;19.70;46.00;;;;;;5042933;28;19940;-61
2023/12/19 12:09:00;;;;;;;;;;;19.70;46.00;;;;;;5045583;28;19925;-61
2023/12/19 12:11:27;;;;;;;;;;;19.70;46.00;;;;;;5023368;28;19933;-61
2023/12/19 12:14:01;;;;;;;;;;;19.70;46.10;;;;;;5038971;28;19931;-60
2023/12/19 12:16:35;;;;;;;;;;;19.80;46.10;;;;;;5041168;28;19939;-60
2023/12/19 12:19:10;;;;;;;;;;;19.80;46.20;;;;;;5046778;28;19951;-61
2023/12/19 12:21:43;;;;;;;;;;;19.80;46.20;;;;;;5041062;28;19921;-60
2023/12/19 12:24:10;;;;;;;;;;;19.80;46.20;;;;;;5039813;28;19955;-60
2023/12/19 12:26:37;;;;;;;;;;;19.80;46.20;;;;;;5042025;28;19935;-61
2023/12/19 12:29:04;;;;;;;;;;;19.80;46.80;;;;;;5045806;28;20015;-61
2023/12/19 12:31:30;;;;;;;;;;;19.90;46.30;;;;;;5044152;28;19924;-61
2023/12/19 12:34:00;;;;;;;;;;;19.90;46.30;;;;;;5043165;28;19925;-62
2023/12/19 12:36:28;;;;;;;;;;;19.90;46.40;;;;;;5048596;28;19933;-61
2023/12/19 12:38:55;;;;;;;;;;;19.90;46.40;;;;;;5042611;28;19932;-61
2023/12/19 12:41:22;;;;;;;;;;;19.90;46.40;;;;;;5040403;28;19924;-61
2023/12/19 12:43:51;;;;;;;;;;;19.90;46.40;;;;;;5047127;28;19929;-61
2023/12/19 12:46:19;;;;;;;;;;;19.90;46.40;;;;;;5046519;28;19953;-61
2023/12/19 12:49:00;;;;;;;;;;;19.90;46.40;;;;;;5045831;28;19924;-61
2023/12/19 12:51:28;;;;;;;;;;;20.00;46.50;;;;;;5037594;28;20028;-60
2023/12/19 12:53:55;;;;;;;;;;;20.00;46.50;;;;;;5044625;28;19936;-60
2023/12/19 12:56:27;;;;;;;;;;;19.90;46.40;;;;;;5039161;28;20015;-60
2023/12/19 12:58:58;;;;;;;;;;;20.00;46.60;;;;;;5054868;28;19925;-62
2023/12/19 13:01:25;;;;;;;;;;;20.00;46.70;;;;;;5042575;28;19986;-61
2023/12/19 13:03:52;;;;;;;;;;;20.00;46.60;;;;;;5044408;28;19925;-60
2023/12/19 13:06:19;;;;;;;;;;;20.00;46.60;;;;;;5026559;28;19956;-60
2023/12/19 13:08:47;;;;;;;;;;;20.00;46.60;;;;;;5046098;28;20004;-61
2023/12/19 13:11:14;;;;;;;;;;;20.00;46.60;;;;;;5038786;28;19929;-61
2023/12/19 13:13:40;;;;;;;;;;;20.00;46.70;;;;;;5044196;28;19937;-60
2023/12/19 13:16:08;;;;;;;;;;;20.00;46.70;;;;;;5041517;28;19978;-60
2023/12/19 13:18:34;;;;;;;;;;;20.10;46.80;;;;;;5041138;28;19992;-60
2023/12/19 13:21:01;;;;;;;;;;;20.00;46.70;;;;;;5044496;28;19947;-60
2023/12/19 13:23:28;;;;;;;;;;;20.00;47.30;;;;;;5044476;28;19933;-61
2023/12/19 13:25:57;;;;;;;;;;;20.00;46.70;;;;;;5048792;28;19932;-60
2023/12/19 13:28:24;;;;;;;;;;;20.00;46.70;;;;;;5042390;28;20423;-60
2023/12/19 13:30:51;;;;;;;;;;;20.10;46.80;;;;;;5044368;28;19925;-60
2023/12/19 13:33:18;;;;;;;;;;;20.10;46.80;;;;;;5043698;28;19929;-59
2023/12/19 13:35:45;;;;;;;;;;;20.10;46.80;;;;;;5042109;28;20289;-61
2023/12/19 13:38:13;;;;;;;;;;;20.10;46.90;;;;;;5047996;28;19928;-61
2023/12/19 13:40:40;;;;;;;;;;;20.10;46.90;;;;;;5044503;28;19932;-61
2023/12/19 13:43:08;;;;;;;;;;;20.10;46.90;;;;;;5047388;28;20279;-60
2023/12/19 13:45:35;;;;;;;;;;;20.10;46.90;;;;;;5047368;28;19933;-60
2023/12/19 13:48:02;;;;;;;;;;;20.10;46.90;;;;;;5049084;28;19932;-61
2023/12/19 13:50:29;;;;;;;;;;;20.10;46.90;;;;;;5047785;28;19975;-61
2023/12/19 13:52:56;;;;;;;;;;;20.10;46.90;;;;;;5045554;28;19987;-60
2023/12/19 13:55:22;;;;;;;;;;;20.10;46.90;;;;;;5049042;28;19932;-60
2023/12/19 13:57:49;;;;;;;;;;;20.20;47.60;;;;;;5040953;28;20011;-59
2023/12/19 14:00:18;;;;;;;;;;;20.10;46.90;;;;;;5043656;28;19932;-59
2023/12/19 14:02:44;;;;;;;;;;;20.20;47.00;;;;;;5045607;28;19928;-60
2023/12/19 14:05:11;;;;;;;;;;;20.20;47.00;;;;;;5048197;28;20389;-60
2023/12/19 14:07:38;;;;;;;;;;;20.20;47.10;;;;;;5040880;28;19940;-60
2023/12/19 14:10:07;;;;;;;;;;;20.20;47.00;;;;;;5043383;28;19929;-60
2023/12/19 14:12:34;;;;;;;;;;;20.20;47.10;;;;;;5049260;28;19932;-61
2023/12/19 14:15:00;;;;;;;;;;;20.10;47.00;;;;;;5045814;28;19982;-60
2023/12/19 14:17:29;;;;;;;;;;;20.20;47.10;;;;;;5045037;28;19924;-60
2023/12/19 14:19:56;;;;;;;;;;;20.20;47.10;;;;;;5049554;28;19975;-59
2023/12/19 14:22:23;;;;;;;;;;;20.20;47.10;;;;;;5050147;28;19925;-60